createdAt,value
2022-11-30T00:01:15.394Z,101191.25
2022-11-30T00:03:42.105Z,101188.91
2022-11-30T00:06:11.964Z,101200.09
2022-11-30T00:08:38.791Z,101192.88
2022-11-30T00:11:10.695Z,101198.50
2022-11-30T00:13:38.077Z,101197.97
2022-11-30T00:16:05.208Z,101202.22
2022-11-30T00:18:31.769Z,101198.50
2022-11-30T00:21:03.055Z,101210.06
2022-11-30T00:23:33.871Z,101217.31
2022-11-30T00:26:06.165Z,101207.25
2022-11-30T00:28:35.293Z,101211.94
2022-11-30T00:31:04.859Z,101212.00
2022-11-30T00:33:36.301Z,101208.91
2022-11-30T00:36:06.040Z,101203.38
2022-11-30T00:38:33.600Z,101207.13
2022-11-30T00:41:01.396Z,101203.28
2022-11-30T00:43:29.025Z,101204.91
2022-11-30T00:45:57.032Z,101194.34
2022-11-30T00:48:23.854Z,101200.78
2022-11-30T00:50:51.040Z,101202.00
2022-11-30T00:53:19.214Z,101204.75
2022-11-30T00:55:47.037Z,101194.03
2022-11-30T00:58:14.512Z,101197.78
2022-11-30T01:00:41.865Z,101201.16
2022-11-30T01:03:08.904Z,101193.91
2022-11-30T01:05:36.826Z,101200.31
2022-11-30T01:08:05.113Z,101198.72
2022-11-30T01:10:33.861Z,101197.03
2022-11-30T01:13:00.949Z,101197.25
2022-11-30T01:15:28.019Z,101193.84
2022-11-30T01:17:54.655Z,101196.06
2022-11-30T01:20:21.933Z,101196.69
2022-11-30T01:22:48.475Z,101203.94
2022-11-30T01:25:15.056Z,101211.78
2022-11-30T01:27:41.854Z,101221.50
2022-11-30T01:30:08.906Z,101218.19
2022-11-30T01:32:35.725Z,101211.25
2022-11-30T01:35:02.776Z,101214.31
2022-11-30T01:37:32.359Z,101213.81
2022-11-30T01:39:58.931Z,101211.56
2022-11-30T01:42:25.456Z,101216.31
2022-11-30T01:44:55.431Z,101218.78
2022-11-30T01:47:51.477Z,101208.38
2022-11-30T01:50:30.849Z,101211.19
2022-11-30T01:52:57.980Z,101216.81
2022-11-30T01:55:37.586Z,101205.38
2022-11-30T01:58:06.176Z,101216.03
2022-11-30T02:00:32.979Z,101214.97
2022-11-30T02:03:06.702Z,101217.09
2022-11-30T02:05:37.070Z,101218.06
2022-11-30T02:08:05.087Z,101218.78
2022-11-30T02:10:35.633Z,101223.34
2022-11-30T02:13:19.813Z,101229.50
2022-11-30T02:16:21.175Z,101223.34
2022-11-30T02:19:36.730Z,101217.75
2022-11-30T02:22:34.002Z,101224.69
2022-11-30T02:25:36.242Z,101217.63
2022-11-30T02:28:37.804Z,101218.69
2022-11-30T02:31:11.369Z,101216.28
2022-11-30T02:33:40.280Z,101213.66
2022-11-30T02:36:08.423Z,101213.34
2022-11-30T02:38:35.093Z,101216.03
2022-11-30T02:41:02.372Z,101215.56
2022-11-30T02:43:31.736Z,101220.69
2022-11-30T02:46:22.684Z,101226.13
2022-11-30T02:48:57.787Z,101224.84
2022-11-30T02:51:27.121Z,101220.50
2022-11-30T02:53:55.289Z,101227.69
2022-11-30T02:56:22.375Z,101219.97
2022-11-30T02:58:48.929Z,101223.47
2022-11-30T03:01:15.654Z,101226.28
2022-11-30T03:03:42.223Z,101228.59
2022-11-30T03:06:08.764Z,101235.00
2022-11-30T03:08:35.632Z,101240.50
2022-11-30T03:11:04.433Z,101237.44
2022-11-30T03:13:34.373Z,101238.81
2022-11-30T03:16:13.259Z,101239.06
2022-11-30T03:18:40.480Z,101239.63
2022-11-30T03:21:12.332Z,101234.25
2022-11-30T03:23:40.865Z,101235.88
2022-11-30T03:26:08.527Z,101235.88
2022-11-30T03:28:36.780Z,101243.28
2022-11-30T03:31:04.783Z,101240.91
2022-11-30T03:33:31.893Z,101238.50
2022-11-30T03:36:00.557Z,101240.63
2022-11-30T03:38:27.130Z,101242.06
2022-11-30T03:41:14.683Z,101252.78
2022-11-30T03:43:41.570Z,101243.88
2022-11-30T03:46:08.869Z,101247.84
2022-11-30T03:48:38.259Z,101252.41
2022-11-30T03:51:05.718Z,101252.56
2022-11-30T03:53:32.848Z,101269.34
2022-11-30T03:56:02.209Z,101250.44
2022-11-30T03:58:29.729Z,101267.63
2022-11-30T04:01:06.294Z,101269.56
2022-11-30T04:03:33.556Z,101262.56
2022-11-30T04:06:00.645Z,101273.09
2022-11-30T04:08:28.205Z,101275.25
2022-11-30T04:10:56.311Z,101274.41
2022-11-30T04:13:24.477Z,101270.69
2022-11-30T04:15:53.125Z,101268.13
2022-11-30T04:18:21.562Z,101265.63
2022-11-30T04:20:51.905Z,101267.34
2022-11-30T04:23:19.335Z,101272.56
2022-11-30T04:25:47.861Z,101280.31
2022-11-30T04:28:16.678Z,101278.28
2022-11-30T04:30:44.370Z,101282.44
2022-11-30T04:33:12.038Z,101283.75
2022-11-30T04:36:00.274Z,101281.53
2022-11-30T04:38:27.817Z,101281.09
2022-11-30T04:40:54.500Z,101275.09
2022-11-30T04:43:22.076Z,101272.25
2022-11-30T04:45:49.190Z,101278.16
2022-11-30T04:48:19.389Z,101275.56
2022-11-30T04:50:46.140Z,101274.19
2022-11-30T04:53:13.073Z,101290.16
2022-11-30T04:55:40.089Z,101279.31
2022-11-30T04:58:07.382Z,101280.97
2022-11-30T05:00:35.370Z,101276.69
2022-11-30T05:03:02.083Z,101281.56
2022-11-30T05:05:28.817Z,101284.53
2022-11-30T05:07:58.390Z,101284.78
2022-11-30T05:10:26.516Z,101284.78
2022-11-30T05:12:53.411Z,101290.94
2022-11-30T05:15:20.469Z,101297.34
2022-11-30T05:17:47.080Z,101293.50
2022-11-30T05:20:13.992Z,101294.06
2022-11-30T05:22:40.962Z,101293.72
2022-11-30T05:25:08.324Z,101298.19
2022-11-30T05:27:35.847Z,101293.00
2022-11-30T05:30:06.273Z,101293.31
2022-11-30T05:32:33.228Z,101299.38
2022-11-30T05:34:59.784Z,101299.91
2022-11-30T05:37:26.569Z,101303.22
2022-11-30T05:39:53.144Z,101307.78
2022-11-30T05:42:20.049Z,101309.72
2022-11-30T05:44:49.198Z,101310.47
2022-11-30T05:47:16.375Z,101314.09
2022-11-30T05:49:43.071Z,101315.34
2022-11-30T05:52:09.709Z,101311.50
2022-11-30T05:54:36.480Z,101310.75
2022-11-30T05:57:03.566Z,101306.72
2022-11-30T05:59:30.341Z,101315.34
2022-11-30T06:01:56.990Z,101310.66
2022-11-30T06:04:23.717Z,101311.84
2022-11-30T06:06:52.118Z,101308.97
2022-11-30T06:09:19.010Z,101314.59
2022-11-30T06:11:45.940Z,101320.88
2022-11-30T06:14:12.542Z,101319.25
2022-11-30T06:16:40.185Z,101323.38
2022-11-30T06:19:07.321Z,101322.50
2022-11-30T06:21:34.794Z,101322.56
2022-11-30T06:24:01.890Z,101325.16
2022-11-30T06:26:29.373Z,101314.72
2022-11-30T06:28:55.972Z,101320.19
2022-11-30T06:31:22.569Z,101328.31
2022-11-30T06:33:49.245Z,101320.50
2022-11-30T06:36:21.816Z,101323.28
2022-11-30T06:38:51.466Z,101336.22
2022-11-30T06:41:18.729Z,101326.19
2022-11-30T06:43:45.383Z,101338.72
2022-11-30T06:46:13.589Z,101341.81
2022-11-30T06:48:40.456Z,101333.56
2022-11-30T06:51:09.315Z,101338.06
2022-11-30T06:53:37.123Z,101333.16
2022-11-30T06:56:10.282Z,101334.88
2022-11-30T06:58:40.823Z,101335.97
2022-11-30T07:01:10.178Z,101342.47
2022-11-30T07:03:37.317Z,101339.75
2022-11-30T07:06:12.181Z,101342.09
2022-11-30T07:08:39.580Z,101352.63
2022-11-30T07:11:07.781Z,101350.09
2022-11-30T07:13:34.426Z,101349.94
2022-11-30T07:16:05.777Z,101362.50
2022-11-30T07:18:32.888Z,101362.16
2022-11-30T07:21:00.899Z,101363.63
2022-11-30T07:23:52.310Z,101367.78
2022-11-30T07:26:22.019Z,101367.69
2022-11-30T07:28:54.456Z,101368.03
2022-11-30T07:31:24.035Z,101368.69
2022-11-30T07:33:51.452Z,101377.97
2022-11-30T07:36:20.774Z,101377.78
2022-11-30T07:38:47.605Z,101379.19
2022-11-30T07:41:14.564Z,101382.38
2022-11-30T07:43:41.459Z,101382.94
2022-11-30T07:46:13.106Z,101377.84
2022-11-30T07:48:40.452Z,101384.75
2022-11-30T07:51:21.190Z,101385.03
2022-11-30T07:53:48.269Z,101388.00
2022-11-30T07:56:17.462Z,101393.97
2022-11-30T07:58:44.790Z,101395.78
2022-11-30T08:01:17.845Z,101396.09
2022-11-30T08:03:45.320Z,101398.63
2022-11-30T08:06:15.310Z,101404.00
2022-11-30T08:08:45.636Z,101399.34
2022-11-30T08:11:14.855Z,101402.94
2022-11-30T08:13:42.050Z,101404.19
2022-11-30T08:16:13.522Z,101404.63
2022-11-30T08:18:40.634Z,101407.19
2022-11-30T08:21:09.582Z,101406.03
2022-11-30T08:23:41.289Z,101411.38
2022-11-30T08:26:11.479Z,101411.91
2022-11-30T08:28:38.094Z,101414.56
2022-11-30T08:31:07.907Z,101411.66
2022-11-30T08:33:37.096Z,101418.06
2022-11-30T08:36:11.277Z,101411.91
2022-11-30T08:38:40.047Z,101417.53
2022-11-30T08:41:07.957Z,101425.31
2022-11-30T08:43:34.979Z,101422.66
2022-11-30T08:46:11.370Z,101424.03
2022-11-30T08:48:48.804Z,101431.19
2022-11-30T08:51:17.595Z,101431.06
2022-11-30T08:53:44.556Z,101437.44
2022-11-30T08:56:17.631Z,101428.63
2022-11-30T08:58:45.012Z,101440.41
2022-11-30T09:01:17.237Z,101449.53
2022-11-30T09:03:45.591Z,101456.34
2022-11-30T09:06:14.757Z,101449.56
2022-11-30T09:08:43.826Z,101447.03
2022-11-30T09:11:12.352Z,101450.84
2022-11-30T09:13:39.649Z,101455.22
2022-11-30T09:16:06.690Z,101461.09
2022-11-30T09:18:33.718Z,101454.03
2022-11-30T09:21:01.761Z,101461.50
2022-11-30T09:23:29.411Z,101463.63
2022-11-30T09:26:01.322Z,101461.28
2022-11-30T09:28:32.117Z,101471.25
2022-11-30T09:31:03.141Z,101466.47
2022-11-30T09:33:30.281Z,101471.34
2022-11-30T09:36:01.707Z,101464.38
2022-11-30T09:38:28.906Z,101457.78
2022-11-30T09:41:00.777Z,101457.16
2022-11-30T09:44:11.740Z,101463.47
2022-11-30T09:47:02.453Z,101466.63
2022-11-30T09:49:34.767Z,101466.22
2022-11-30T09:52:05.470Z,101479.13
2022-11-30T09:54:38.241Z,101469.69
2022-11-30T09:57:37.617Z,101476.38
2022-11-30T10:00:12.411Z,101468.31
2022-11-30T10:02:42.997Z,101477.94
2022-11-30T10:05:14.758Z,101469.16
2022-11-30T10:08:03.001Z,101468.72
2022-11-30T10:10:54.316Z,101467.00
2022-11-30T10:13:42.005Z,101465.44
2022-11-30T10:16:32.990Z,101474.44
2022-11-30T10:19:24.382Z,101473.19
2022-11-30T10:22:24.704Z,101470.00
2022-11-30T10:25:18.410Z,101456.91
2022-11-30T10:28:23.981Z,101465.94
2022-11-30T10:30:49.384Z,101455.56
2022-11-30T10:33:24.181Z,101457.78
2022-11-30T10:35:58.642Z,101459.06
2022-11-30T10:38:31.926Z,101453.84
2022-11-30T10:41:10.557Z,101463.66
2022-11-30T10:43:42.345Z,101451.41
2022-11-30T10:46:19.799Z,101443.41
2022-11-30T10:48:54.240Z,101446.38
2022-11-30T10:51:21.041Z,101439.81
2022-11-30T10:53:47.621Z,101437.09
2022-11-30T10:56:15.164Z,101436.16
2022-11-30T10:58:44.555Z,101441.03
2022-11-30T11:01:30.238Z,101443.44
2022-11-30T11:04:17.102Z,101445.72
2022-11-30T11:06:54.955Z,101437.69
2022-11-30T11:09:36.797Z,101446.50
2022-11-30T11:12:14.914Z,101441.88
2022-11-30T11:14:41.647Z,101438.56
2022-11-30T11:17:17.330Z,101447.72
2022-11-30T11:19:45.758Z,101437.63
2022-11-30T11:22:28.376Z,101442.22
2022-11-30T11:25:27.632Z,101438.31
2022-11-30T11:27:58.986Z,101446.63
2022-11-30T11:30:26.082Z,101449.22
2022-11-30T11:33:00.093Z,101443.94
2022-11-30T11:35:46.096Z,101445.03
2022-11-30T11:38:29.466Z,101440.38
2022-11-30T11:41:05.777Z,101443.66
2022-11-30T11:43:34.418Z,101444.31
2022-11-30T11:46:13.234Z,101446.22
2022-11-30T11:48:58.923Z,101452.69
2022-11-30T11:51:38.962Z,101446.03
2022-11-30T11:54:31.765Z,101453.41
2022-11-30T11:56:59.125Z,101451.53
2022-11-30T11:59:35.763Z,101462.25
2022-11-30T12:02:16.042Z,101454.69
2022-11-30T12:04:52.791Z,101465.59
2022-11-30T12:07:30.182Z,101466.00
2022-11-30T12:10:16.525Z,101467.50
2022-11-30T12:12:55.127Z,101466.84
2022-11-30T12:15:36.601Z,101464.59
2022-11-30T12:18:23.865Z,101467.91
2022-11-30T12:21:07.960Z,101467.59
2022-11-30T12:23:34.516Z,101475.56
2022-11-30T12:26:08.434Z,101476.84
2022-11-30T12:29:09.862Z,101475.38
2022-11-30T12:31:45.644Z,101490.13
2022-11-30T12:34:36.925Z,101476.09
2022-11-30T12:37:03.395Z,101474.59
2022-11-30T12:39:44.891Z,101475.56
2022-11-30T12:42:23.737Z,101484.00
2022-11-30T12:45:06.443Z,101477.63
2022-11-30T12:48:11.222Z,101479.06
2022-11-30T12:51:10.471Z,101479.72
2022-11-30T12:53:45.280Z,101480.91
2022-11-30T12:56:22.371Z,101485.97
2022-11-30T12:59:11.117Z,101485.25
2022-11-30T13:02:04.917Z,101485.09
2022-11-30T13:05:07.385Z,101481.91
2022-11-30T13:07:40.083Z,101482.25
2022-11-30T13:10:21.573Z,101481.72
2022-11-30T13:12:52.592Z,101484.31
2022-11-30T13:15:23.591Z,101485.88
2022-11-30T13:17:51.251Z,101490.56
2022-11-30T13:21:07.214Z,101492.84
2022-11-30T13:23:53.193Z,101503.63
2022-11-30T13:26:30.862Z,101499.31
2022-11-30T13:29:10.883Z,101486.53
2022-11-30T13:32:00.529Z,101490.72
2022-11-30T13:34:29.606Z,101491.81
2022-11-30T13:37:13.697Z,101493.13
2022-11-30T13:39:54.413Z,101489.75
2022-11-30T13:42:50.130Z,101492.31
2022-11-30T13:45:32.204Z,101501.41
2022-11-30T13:48:00.137Z,101498.66
2022-11-30T13:50:37.425Z,101491.16
2022-11-30T13:53:03.996Z,101500.69
2022-11-30T13:55:49.944Z,101494.31
2022-11-30T13:58:19.133Z,101489.63
2022-11-30T14:01:22.144Z,101506.69
2022-11-30T14:04:19.459Z,101497.03
2022-11-30T14:06:52.213Z,101505.09
2022-11-30T14:09:37.145Z,101512.56
2022-11-30T14:12:36.582Z,101505.19
2022-11-30T14:15:31.822Z,101515.09
2022-11-30T14:17:58.913Z,101510.13
2022-11-30T14:20:37.505Z,101517.75
2022-11-30T14:23:07.777Z,101505.69
2022-11-30T14:25:35.456Z,101512.41
2022-11-30T14:28:05.343Z,101508.03
2022-11-30T14:30:34.272Z,101511.84
2022-11-30T14:33:19.205Z,101508.75
2022-11-30T14:35:53.993Z,101515.84
2022-11-30T14:38:26.438Z,101509.72
2022-11-30T14:40:54.172Z,101511.44
2022-11-30T14:43:21.193Z,101502.91
2022-11-30T14:46:05.615Z,101506.97
2022-11-30T14:48:33.795Z,101515.72
2022-11-30T14:51:03.834Z,101502.53
2022-11-30T14:53:43.504Z,101509.38
2022-11-30T14:56:34.845Z,101514.78
2022-11-30T14:59:23.152Z,101513.25
2022-11-30T15:01:57.403Z,101513.63
2022-11-30T15:04:27.400Z,101514.97
2022-11-30T15:06:56.246Z,101513.81
2022-11-30T15:09:28.244Z,101517.25
2022-11-30T15:11:55.572Z,101520.06
2022-11-30T15:14:22.222Z,101524.13
2022-11-30T15:16:55.209Z,101530.84
2022-11-30T15:19:25.075Z,101523.59
2022-11-30T15:21:53.310Z,101525.78
2022-11-30T15:24:20.836Z,101531.94
2022-11-30T15:26:53.734Z,101531.78
2022-11-30T15:29:29.601Z,101534.63
2022-11-30T15:31:58.830Z,101530.31
2022-11-30T15:34:40.142Z,101532.25
2022-11-30T15:37:11.001Z,101542.34
2022-11-30T15:39:38.887Z,101533.44
2022-11-30T15:42:06.016Z,101536.47
2022-11-30T15:44:32.872Z,101546.50
2022-11-30T15:47:02.393Z,101537.09
2022-11-30T15:49:32.388Z,101541.28
2022-11-30T15:52:05.045Z,101540.78
2022-11-30T15:54:54.184Z,101551.22
2022-11-30T15:57:23.151Z,101547.91
2022-11-30T16:00:06.630Z,101547.78
2022-11-30T16:02:36.962Z,101550.81
2022-11-30T16:05:12.355Z,101553.03
2022-11-30T16:08:15.385Z,101550.75
2022-11-30T16:10:43.615Z,101551.63
2022-11-30T16:13:14.319Z,101558.88
2022-11-30T16:15:46.809Z,101554.56
2022-11-30T16:18:33.705Z,101560.47
2022-11-30T16:21:01.696Z,101555.81
2022-11-30T16:23:28.792Z,101571.00
2022-11-30T16:25:56.073Z,101563.69
2022-11-30T16:28:23.427Z,101563.06
2022-11-30T16:30:51.181Z,101568.81
2022-11-30T16:33:23.405Z,101565.38
2022-11-30T16:36:00.058Z,101568.19
2022-11-30T16:38:28.099Z,101569.25
2022-11-30T16:40:55.884Z,101573.84
2022-11-30T16:43:23.658Z,101570.19
2022-11-30T16:45:50.710Z,101583.78
2022-11-30T16:48:18.133Z,101579.72
2022-11-30T16:50:45.304Z,101580.00
2022-11-30T16:53:16.759Z,101585.22
2022-11-30T16:55:44.368Z,101580.38
2022-11-30T16:58:11.242Z,101578.63
2022-11-30T17:00:40.209Z,101588.91
2022-11-30T17:03:18.166Z,101579.88
2022-11-30T17:05:44.767Z,101581.25
2022-11-30T17:08:11.368Z,101588.03
2022-11-30T17:10:38.625Z,101585.38
2022-11-30T17:13:05.871Z,101589.13
2022-11-30T17:15:32.508Z,101597.69
2022-11-30T17:17:59.323Z,101595.25
2022-11-30T17:20:27.653Z,101595.91
2022-11-30T17:22:54.255Z,101600.63
2022-11-30T17:25:23.006Z,101599.78
2022-11-30T17:27:50.808Z,101603.66
2022-11-30T17:30:20.833Z,101601.97
2022-11-30T17:32:48.143Z,101610.28
2022-11-30T17:35:14.807Z,101605.44
2022-11-30T17:37:41.329Z,101612.88
2022-11-30T17:40:08.960Z,101606.59
2022-11-30T17:42:35.488Z,101612.91
2022-11-30T17:45:02.146Z,101608.19
2022-11-30T17:47:29.911Z,101612.22
2022-11-30T17:49:57.457Z,101620.41
2022-11-30T17:52:24.451Z,101621.47
2022-11-30T17:54:54.221Z,101619.31
2022-11-30T17:57:20.972Z,101632.56
2022-11-30T17:59:47.818Z,101631.31
2022-11-30T18:02:14.770Z,101634.00
2022-11-30T18:04:41.696Z,101631.19
2022-11-30T18:07:08.723Z,101634.69
2022-11-30T18:09:40.802Z,101634.97
2022-11-30T18:12:09.402Z,101634.06
2022-11-30T18:14:36.000Z,101638.25
2022-11-30T18:17:02.728Z,101645.06
2022-11-30T18:19:29.649Z,101644.03
2022-11-30T18:21:56.275Z,101638.84
2022-11-30T18:24:25.767Z,101648.69
2022-11-30T18:26:52.944Z,101641.94
2022-11-30T18:29:19.760Z,101641.94
2022-11-30T18:31:48.331Z,101643.94
2022-11-30T18:34:15.509Z,101656.50
2022-11-30T18:36:42.994Z,101653.16
2022-11-30T18:39:09.889Z,101660.28
2022-11-30T18:41:36.786Z,101659.63
2022-11-30T18:44:04.239Z,101662.00
2022-11-30T18:46:31.309Z,101666.75
2022-11-30T18:48:59.721Z,101667.25
2022-11-30T18:51:29.588Z,101664.47
2022-11-30T18:53:58.450Z,101670.56
2022-11-30T18:56:27.788Z,101668.03
2022-11-30T18:58:57.040Z,101664.16
2022-11-30T19:01:25.088Z,101681.75
2022-11-30T19:03:53.835Z,101678.88
2022-11-30T19:06:21.010Z,101678.97
2022-11-30T19:08:48.184Z,101678.53
2022-11-30T19:11:16.485Z,101677.59
2022-11-30T19:13:44.124Z,101687.25
2022-11-30T19:16:16.654Z,101680.47
2022-11-30T19:18:45.083Z,101684.72
2022-11-30T19:21:15.365Z,101686.50
2022-11-30T19:23:42.604Z,101679.94
2022-11-30T19:26:10.607Z,101679.97
2022-11-30T19:28:38.751Z,101682.59
2022-11-30T19:31:20.172Z,101679.25
2022-11-30T19:33:50.613Z,101678.59
2022-11-30T19:36:23.555Z,101677.19
2022-11-30T19:38:51.422Z,101670.75
2022-11-30T19:41:20.056Z,101686.06
2022-11-30T19:43:53.949Z,101693.34
2022-11-30T19:46:22.744Z,101695.53
2022-11-30T19:48:49.319Z,101683.63
2022-11-30T19:51:18.927Z,101687.00
2022-11-30T19:53:46.492Z,101690.22
2022-11-30T19:56:14.675Z,101687.44
2022-11-30T19:58:43.787Z,101685.47
2022-11-30T20:01:14.473Z,101677.59
2022-11-30T20:03:41.690Z,101691.34
2022-11-30T20:06:08.458Z,101692.03
2022-11-30T20:08:38.244Z,101693.66
2022-11-30T20:11:31.087Z,101694.53
2022-11-30T20:13:58.403Z,101701.13
2022-11-30T20:16:25.137Z,101698.03
2022-11-30T20:18:54.681Z,101697.09
2022-11-30T20:21:24.487Z,101701.53
2022-11-30T20:23:52.637Z,101702.47
2022-11-30T20:26:25.977Z,101706.91
2022-11-30T20:31:41.194Z,101712.13
2022-11-30T20:34:08.981Z,101707.25
2022-11-30T20:36:36.592Z,101714.88
2022-11-30T20:39:03.861Z,101707.22
2022-11-30T20:41:30.682Z,101705.50
2022-11-30T20:43:57.946Z,101711.63
2022-11-30T20:46:30.930Z,101707.25
2022-11-30T20:48:58.889Z,101707.16
2022-11-30T20:51:34.935Z,101707.59
2022-11-30T20:54:06.794Z,101707.78
2022-11-30T20:56:37.802Z,101706.19
2022-11-30T20:59:07.115Z,101708.91
2022-11-30T21:01:34.341Z,101707.19
2022-11-30T21:04:02.765Z,101706.34
2022-11-30T21:06:30.871Z,101707.38
2022-11-30T21:08:58.579Z,101709.03
2022-11-30T21:11:27.465Z,101711.19
2022-11-30T21:13:55.523Z,101715.56
2022-11-30T21:16:27.567Z,101710.78
2022-11-30T21:18:56.126Z,101715.34
2022-11-30T21:21:24.562Z,101709.53
2022-11-30T21:23:51.800Z,101703.38
2022-11-30T21:26:18.601Z,101709.78
2022-11-30T21:28:47.078Z,101713.69
2022-11-30T21:31:14.659Z,101715.41
2022-11-30T21:33:44.470Z,101712.59
2022-11-30T21:36:15.975Z,101713.94
2022-11-30T21:38:43.877Z,101714.88
2022-11-30T21:41:14.061Z,101719.25
2022-11-30T21:43:41.489Z,101716.63
2022-11-30T21:46:12.156Z,101718.38
2022-11-30T21:48:41.221Z,101715.81
2022-11-30T21:51:15.122Z,101716.28
2022-11-30T21:53:44.465Z,101716.63
2022-11-30T21:56:13.908Z,101716.63
2022-11-30T21:58:42.302Z,101714.72
2022-11-30T22:01:16.123Z,101714.56
2022-11-30T22:03:43.592Z,101709.22
2022-11-30T22:06:13.480Z,101711.28
2022-11-30T22:08:41.201Z,101712.19
2022-11-30T22:11:11.156Z,101718.09
2022-11-30T22:13:39.186Z,101708.41
2022-11-30T22:16:10.484Z,101716.34
2022-11-30T22:18:38.109Z,101705.13
2022-11-30T22:21:15.200Z,101709.13
2022-11-30T22:23:45.851Z,101722.91
2022-11-30T22:26:24.497Z,101708.63
2022-11-30T22:29:11.205Z,101708.81
2022-11-30T22:31:40.840Z,101715.59
2022-11-30T22:34:08.172Z,101709.66
2022-11-30T22:36:37.019Z,101708.69
2022-11-30T22:39:10.792Z,101711.91
2022-11-30T22:41:40.028Z,101716.25
2022-11-30T22:44:07.303Z,101704.44
2022-11-30T22:46:36.665Z,101714.81
2022-11-30T22:49:07.101Z,101713.88
2022-11-30T22:51:35.504Z,101716.50
2022-11-30T22:54:02.476Z,101712.63
2022-11-30T22:56:32.152Z,101706.66
2022-11-30T22:59:01.126Z,101712.78
2022-11-30T23:01:35.761Z,101717.56
2022-11-30T23:04:09.539Z,101718.63
2022-11-30T23:06:38.307Z,101720.03
2022-11-30T23:09:07.180Z,101715.00
2022-11-30T23:11:34.385Z,101723.56
2022-11-30T23:14:01.445Z,101719.72
2022-11-30T23:16:28.054Z,101723.50
2022-11-30T23:18:57.252Z,101719.97
2022-11-30T23:21:30.108Z,101715.56
2022-11-30T23:24:00.231Z,101718.22
2022-11-30T23:26:30.508Z,101716.53
2022-11-30T23:29:02.488Z,101722.28
2022-11-30T23:31:35.268Z,101722.78
2022-11-30T23:34:05.178Z,101710.88
2022-11-30T23:36:33.796Z,101715.00
2022-11-30T23:39:03.837Z,101721.16
2022-11-30T23:41:30.533Z,101719.69
2022-11-30T23:43:57.257Z,101723.47
2022-11-30T23:46:24.201Z,101725.03
2022-11-30T23:48:51.105Z,101727.19
2022-11-30T23:51:18.664Z,101730.78
2022-11-30T23:53:46.281Z,101720.00
2022-11-30T23:56:16.244Z,101734.19
2022-11-30T23:58:43.734Z,101722.13
